createdAt,value
2022-10-31T00:01:42.456Z,99369.28
2022-10-31T00:04:11.113Z,99360.91
2022-10-31T00:06:39.730Z,99362.28
2022-10-31T00:09:08.351Z,99366.16
2022-10-31T00:11:37.035Z,99357.97
2022-10-31T00:14:06.106Z,99359.63
2022-10-31T00:16:34.922Z,99359.13
2022-10-31T00:19:08.235Z,99363.94
2022-10-31T00:21:37.683Z,99365.22
2022-10-31T00:24:07.501Z,99362.66
2022-10-31T00:26:36.383Z,99367.66
2022-10-31T00:29:05.080Z,99363.59
2022-10-31T00:31:34.196Z,99365.41
2022-10-31T00:34:05.095Z,99368.34
2022-10-31T00:36:33.794Z,99368.09
2022-10-31T00:39:02.650Z,99368.81
2022-10-31T00:41:31.332Z,99364.13
2022-10-31T00:44:00.117Z,99366.22
2022-10-31T00:46:28.899Z,99373.38
2022-10-31T00:48:58.752Z,99369.88
2022-10-31T00:51:28.908Z,99367.38
2022-10-31T00:53:57.552Z,99378.94
2022-10-31T00:56:26.317Z,99378.94
2022-10-31T00:58:54.995Z,99375.75
2022-10-31T01:01:23.765Z,99377.88
2022-10-31T01:03:53.278Z,99377.13
2022-10-31T01:06:21.904Z,99374.00
2022-10-31T01:08:51.852Z,99376.69
2022-10-31T01:11:23.843Z,99382.47
2022-10-31T01:13:55.778Z,99381.31
2022-10-31T01:16:28.126Z,99378.78
2022-10-31T01:18:58.446Z,99375.72
2022-10-31T01:21:31.851Z,99380.41
2022-10-31T01:24:04.012Z,99382.03
2022-10-31T01:26:35.044Z,99373.84
2022-10-31T01:29:07.717Z,99383.38
2022-10-31T01:31:41.257Z,99386.06
2022-10-31T01:34:14.604Z,99385.47
2022-10-31T01:36:44.375Z,99383.47
2022-10-31T01:39:17.275Z,99385.88
2022-10-31T01:41:48.578Z,99375.72
2022-10-31T01:44:55.602Z,99384.13
2022-10-31T01:47:34.810Z,99385.75
2022-10-31T01:50:14.498Z,99383.28
2022-10-31T03:00:29.308Z,99417.69
2022-10-31T03:03:13.279Z,99409.78
2022-10-31T03:05:57.267Z,99406.81
2022-10-31T03:08:37.004Z,99411.50
2022-10-31T03:11:10.487Z,99413.78
2022-10-31T03:13:52.040Z,99417.50
2022-10-31T03:16:37.513Z,99409.72
2022-10-31T03:19:10.555Z,99409.47
2022-10-31T03:21:46.567Z,99413.06
2022-10-31T03:24:18.118Z,99410.69
2022-10-31T03:26:53.983Z,99411.59
2022-10-31T03:29:30.964Z,99426.44
2022-10-31T03:32:08.856Z,99420.28
2022-10-31T03:34:41.962Z,99427.94
2022-10-31T03:37:17.195Z,99431.50
2022-10-31T03:39:49.101Z,99429.84
2022-10-31T03:42:22.843Z,99432.84
2022-10-31T03:45:04.813Z,99433.28
2022-10-31T03:47:37.440Z,99437.72
2022-10-31T03:50:08.829Z,99434.88
2022-10-31T03:52:48.089Z,99437.72
2022-10-31T03:55:23.210Z,99435.75
2022-10-31T03:58:00.824Z,99432.41
2022-10-31T04:00:30.120Z,99427.88
2022-10-31T04:03:08.715Z,99437.16
2022-10-31T04:05:43.014Z,99443.94
2022-10-31T04:08:17.547Z,99443.72
2022-10-31T04:10:52.038Z,99446.53
2022-10-31T04:13:28.670Z,99442.06
2022-10-31T04:16:16.907Z,99439.81
2022-10-31T04:18:47.799Z,99445.22
2022-10-31T04:21:18.866Z,99446.47
2022-10-31T04:23:48.224Z,99445.94
2022-10-31T04:26:23.323Z,99444.28
2022-10-31T04:28:52.044Z,99449.41
2022-10-31T04:31:21.049Z,99442.00
2022-10-31T04:33:53.278Z,99440.34
2022-10-31T04:36:22.349Z,99441.84
2022-10-31T04:38:51.016Z,99447.78
2022-10-31T04:41:40.428Z,99443.66
2022-10-31T04:44:15.765Z,99444.53
2022-10-31T04:46:44.948Z,99443.31
2022-10-31T04:49:15.359Z,99452.59
2022-10-31T04:51:44.500Z,99437.31
2022-10-31T04:54:13.164Z,99447.78
2022-10-31T04:57:00.236Z,99450.91
2022-10-31T04:59:29.998Z,99447.13
2022-10-31T05:01:58.781Z,99451.94
2022-10-31T05:04:42.531Z,99455.13
2022-10-31T05:07:11.128Z,99452.66
2022-10-31T05:09:40.174Z,99449.47
2022-10-31T05:12:09.336Z,99457.34
2022-10-31T05:14:56.432Z,99456.16
2022-10-31T05:17:44.148Z,99454.88
2022-10-31T05:20:33.493Z,99450.00
2022-10-31T05:23:16.005Z,99450.06
2022-10-31T05:25:44.756Z,99447.75
2022-10-31T05:28:14.176Z,99451.19
2022-10-31T05:30:42.818Z,99445.41
2022-10-31T05:33:17.994Z,99452.38
2022-10-31T05:36:11.343Z,99451.34
2022-10-31T05:39:06.558Z,99447.91
2022-10-31T05:41:43.085Z,99450.81
2022-10-31T05:44:17.596Z,99461.06
2022-10-31T05:46:56.092Z,99458.38
2022-10-31T05:49:43.028Z,99463.50
2022-10-31T05:52:28.014Z,99464.56
2022-10-31T05:55:04.196Z,99462.69
2022-10-31T05:57:35.676Z,99466.09
2022-10-31T06:00:06.577Z,99468.81
2022-10-31T06:02:50.391Z,99462.84
2022-10-31T06:05:31.343Z,99472.34
2022-10-31T06:08:02.115Z,99472.34
2022-10-31T06:10:32.100Z,99473.38
2022-10-31T06:13:01.086Z,99479.34
2022-10-31T06:15:54.687Z,99479.69
2022-10-31T06:18:26.704Z,99477.63
2022-10-31T06:20:56.950Z,99477.41
2022-10-31T06:23:27.261Z,99482.53
2022-10-31T06:26:15.902Z,99481.47
2022-10-31T06:28:44.792Z,99476.94
2022-10-31T06:31:28.537Z,99480.00
2022-10-31T06:34:01.089Z,99479.19
2022-10-31T06:36:29.735Z,99484.91
2022-10-31T06:38:59.706Z,99493.97
2022-10-31T06:41:28.934Z,99499.50
2022-10-31T06:43:58.956Z,99504.44
2022-10-31T06:46:54.202Z,99498.47
2022-10-31T06:49:58.410Z,99504.84
2022-10-31T06:52:29.142Z,99507.47
2022-10-31T06:54:59.504Z,99513.81
2022-10-31T06:57:30.384Z,99510.84
2022-10-31T06:59:59.060Z,99509.84
2022-10-31T07:02:57.693Z,99514.78
2022-10-31T07:05:27.779Z,99506.91
2022-10-31T07:07:57.597Z,99514.06
2022-10-31T07:10:32.096Z,99512.59
2022-10-31T07:13:07.971Z,99521.59
2022-10-31T07:15:42.022Z,99521.16
2022-10-31T07:18:13.809Z,99517.81
2022-10-31T07:20:42.560Z,99525.41
2022-10-31T07:23:12.876Z,99523.09
2022-10-31T07:25:44.446Z,99522.66
2022-10-31T07:28:19.334Z,99521.41
2022-10-31T07:30:53.769Z,99527.97
2022-10-31T07:33:24.495Z,99521.09
2022-10-31T07:36:11.689Z,99519.63
2022-10-31T07:38:48.055Z,99524.53
2022-10-31T07:41:19.645Z,99529.00
2022-10-31T07:43:50.223Z,99531.84
2022-10-31T07:46:19.505Z,99529.75
2022-10-31T07:48:51.602Z,99530.50
2022-10-31T07:51:41.593Z,99527.97
2022-10-31T07:54:37.008Z,99530.56
2022-10-31T07:57:07.161Z,99527.19
2022-10-31T07:59:35.929Z,99527.34
2022-10-31T08:02:05.603Z,99520.25
2022-10-31T08:04:34.996Z,99525.53
2022-10-31T08:07:22.456Z,99525.25
2022-10-31T08:09:59.497Z,99526.66
2022-10-31T08:12:34.610Z,99531.69
2022-10-31T08:15:03.893Z,99524.59
2022-10-31T08:17:37.501Z,99524.28
2022-10-31T08:20:07.461Z,99525.81
2022-10-31T08:22:44.118Z,99515.81
2022-10-31T08:25:13.716Z,99515.28
2022-10-31T08:27:44.226Z,99516.56
2022-10-31T08:30:20.206Z,99516.25
2022-10-31T08:33:08.017Z,99518.13
2022-10-31T08:35:55.473Z,99514.63
2022-10-31T08:38:42.913Z,99511.13
2022-10-31T08:41:14.258Z,99508.69
2022-10-31T08:43:45.842Z,99503.63
2022-10-31T08:46:15.514Z,99511.91
2022-10-31T08:48:46.512Z,99510.00
2022-10-31T08:51:15.288Z,99510.50
2022-10-31T08:53:44.650Z,99507.72
2022-10-31T08:56:39.838Z,99499.53
2022-10-31T08:59:25.497Z,99514.72
2022-10-31T09:02:23.261Z,99509.97
2022-10-31T09:04:55.664Z,99509.06
2022-10-31T09:07:24.471Z,99512.59
2022-10-31T09:09:53.570Z,99507.97
2022-10-31T09:12:22.742Z,99509.75
2022-10-31T09:14:58.906Z,99502.03
2022-10-31T09:17:51.128Z,99512.81
2022-10-31T09:20:31.842Z,99508.91
2022-10-31T09:23:03.459Z,99504.94
2022-10-31T09:25:37.385Z,99507.25
2022-10-31T09:28:26.184Z,99513.66
2022-10-31T09:30:58.795Z,99511.50
2022-10-31T09:33:47.433Z,99511.41
2022-10-31T09:36:47.283Z,99505.75
2022-10-31T09:39:22.041Z,99506.97
2022-10-31T09:42:33.297Z,99504.69
2022-10-31T09:45:14.913Z,99507.81
2022-10-31T09:48:04.674Z,99509.41
2022-10-31T09:50:48.766Z,99506.13
2022-10-31T09:53:46.804Z,99509.53
2022-10-31T09:56:23.739Z,99510.41
2022-10-31T09:58:59.182Z,99509.94
2022-10-31T10:01:45.695Z,99504.84
2022-10-31T10:04:38.716Z,99499.47
2022-10-31T10:07:27.958Z,99508.22
2022-10-31T10:10:19.636Z,99506.69
2022-10-31T10:16:25.084Z,99496.44
2022-10-31T10:19:20.758Z,99499.09
2022-10-31T10:22:00.460Z,99490.94
2022-10-31T10:24:56.533Z,99493.06
2022-10-31T10:27:43.980Z,99492.56
2022-10-31T10:30:19.518Z,99487.97
2022-10-31T10:32:55.720Z,99486.66
2022-10-31T10:35:32.646Z,99483.72
2022-10-31T10:38:18.817Z,99486.66
2022-10-31T10:40:49.831Z,99480.69
2022-10-31T10:43:34.683Z,99479.34
2022-10-31T10:46:38.776Z,99475.81
2022-10-31T10:54:09.464Z,99470.16
2022-10-31T10:57:05.156Z,99474.81
2022-10-31T10:59:34.580Z,99465.88
2022-10-31T11:02:03.347Z,99463.97
2022-10-31T11:04:36.932Z,99460.19
2022-10-31T11:07:10.884Z,99454.00
2022-10-31T11:09:40.567Z,99454.00
2022-10-31T11:12:25.112Z,99447.25
2022-10-31T11:15:02.717Z,99455.63
2022-10-31T11:17:36.618Z,99441.88
2022-10-31T11:20:24.822Z,99440.78
2022-10-31T11:23:18.740Z,99438.91
2022-10-31T11:26:00.145Z,99436.47
2022-10-31T11:28:31.594Z,99424.06
2022-10-31T11:31:07.995Z,99421.38
2022-10-31T11:33:41.371Z,99427.91
2022-10-31T11:36:23.451Z,99421.69
2022-10-31T11:38:55.532Z,99420.88
2022-10-31T11:41:30.764Z,99416.53
2022-10-31T11:44:03.432Z,99412.78
2022-10-31T11:46:37.549Z,99413.34
2022-10-31T11:49:08.348Z,99413.69
2022-10-31T11:51:37.730Z,99410.56
2022-10-31T11:54:20.684Z,99412.47
2022-10-31T11:56:50.025Z,99409.06
2022-10-31T11:59:26.902Z,99406.16
2022-10-31T12:02:02.605Z,99401.63
2022-10-31T12:04:43.647Z,99399.22
2022-10-31T12:07:12.338Z,99395.47
2022-10-31T12:09:43.688Z,99392.75
2022-10-31T12:12:44.599Z,99392.81
2022-10-31T12:15:34.896Z,99388.78
2022-10-31T12:18:41.959Z,99386.47
2022-10-31T12:21:33.313Z,99382.09
2022-10-31T12:24:18.107Z,99384.31
2022-10-31T12:27:00.467Z,99385.06
2022-10-31T12:30:12.112Z,99375.13
2022-10-31T12:33:13.903Z,99374.81
2022-10-31T12:35:54.072Z,99374.00
2022-10-31T12:38:54.896Z,99375.91
2022-10-31T12:41:46.541Z,99372.31
2022-10-31T12:44:55.249Z,99360.44
2022-10-31T12:48:06.692Z,99355.91
2022-10-31T12:50:54.639Z,99354.88
2022-10-31T12:53:53.786Z,99347.28
2022-10-31T12:56:43.149Z,99347.78
2022-10-31T12:59:21.542Z,99338.56
2022-10-31T13:01:58.077Z,99346.34
2022-10-31T13:04:45.710Z,99341.47
2022-10-31T13:07:22.635Z,99340.34
2022-10-31T13:10:04.000Z,99337.38
2022-10-31T13:12:37.547Z,99344.72
2022-10-31T13:15:21.101Z,99338.81
2022-10-31T13:17:55.432Z,99331.53
2022-10-31T13:20:32.155Z,99333.41
2022-10-31T13:23:44.629Z,99333.91
2022-10-31T13:26:15.215Z,99326.91
2022-10-31T13:28:52.057Z,99321.50
2022-10-31T13:31:23.098Z,99326.34
2022-10-31T13:33:58.953Z,99330.69
2022-10-31T13:36:37.314Z,99331.47
2022-10-31T13:39:24.075Z,99322.84
2022-10-31T13:42:03.134Z,99322.00
2022-10-31T13:44:38.771Z,99327.41
2022-10-31T13:47:29.146Z,99325.78
2022-10-31T13:50:22.485Z,99325.78
2022-10-31T13:52:51.385Z,99325.78
2022-10-31T13:55:44.293Z,99310.91
2022-10-31T13:58:28.938Z,99325.50
2022-10-31T14:01:17.690Z,99309.00
2022-10-31T14:04:13.054Z,99305.16
2022-10-31T14:06:55.890Z,99310.28
2022-10-31T14:09:36.231Z,99310.56
2022-10-31T14:12:09.805Z,99308.09
2022-10-31T14:14:51.608Z,99300.78
2022-10-31T14:17:28.080Z,99299.41
2022-10-31T14:20:36.175Z,99298.03
2022-10-31T14:23:41.280Z,99290.22
2022-10-31T14:26:38.618Z,99287.75
2022-10-31T14:29:29.344Z,99291.53
2022-10-31T14:32:14.008Z,99285.84
2022-10-31T14:34:52.843Z,99282.56
2022-10-31T14:38:03.607Z,99285.53
2022-10-31T14:40:50.978Z,99283.31
2022-10-31T14:43:43.298Z,99284.94
2022-10-31T14:46:25.664Z,99282.19
2022-10-31T14:49:30.572Z,99283.50
2022-10-31T14:52:00.237Z,99279.97
2022-10-31T14:54:36.246Z,99281.81
2022-10-31T14:57:09.818Z,99274.78
2022-10-31T14:59:44.689Z,99273.44
2022-10-31T15:02:23.295Z,99281.22
2022-10-31T15:04:56.644Z,99275.75
2022-10-31T15:07:28.002Z,99271.91
2022-10-31T15:10:03.446Z,99269.47
2022-10-31T15:12:35.032Z,99269.41
2022-10-31T15:15:16.284Z,99259.94
2022-10-31T15:18:00.683Z,99270.16
2022-10-31T15:20:32.816Z,99259.59
2022-10-31T15:23:02.841Z,99268.72
2022-10-31T15:25:36.858Z,99263.81
2022-10-31T15:28:17.749Z,99270.22
2022-10-31T15:30:54.191Z,99264.75
2022-10-31T15:33:26.607Z,99263.34
2022-10-31T15:36:00.579Z,99259.22
2022-10-31T15:38:31.201Z,99250.56
2022-10-31T15:41:05.690Z,99252.69
2022-10-31T15:43:41.071Z,99253.22
2022-10-31T15:46:11.844Z,99249.31
2022-10-31T15:48:41.659Z,99237.09
2022-10-31T15:51:10.233Z,99238.66
2022-10-31T15:53:46.107Z,99232.91
2022-10-31T15:56:25.006Z,99229.59
2022-10-31T15:58:56.351Z,99241.91
2022-10-31T16:01:28.455Z,99241.28
2022-10-31T16:04:07.597Z,99242.25
2022-10-31T16:06:37.270Z,99235.56
2022-10-31T16:09:23.207Z,99232.78
2022-10-31T16:11:53.988Z,99234.63
2022-10-31T16:14:28.701Z,99231.59
2022-10-31T16:17:00.594Z,99229.91
2022-10-31T16:19:34.640Z,99232.84
2022-10-31T16:22:10.968Z,99231.69
2022-10-31T16:24:50.619Z,99231.34
2022-10-31T16:27:27.963Z,99235.94
2022-10-31T16:29:58.478Z,99231.88
2022-10-31T16:32:35.749Z,99234.81
2022-10-31T16:35:27.440Z,99233.19
2022-10-31T16:37:57.818Z,99235.50
2022-10-31T16:40:27.564Z,99226.88
2022-10-31T16:43:01.641Z,99229.22
2022-10-31T16:45:33.948Z,99227.53
2022-10-31T16:48:08.052Z,99232.25
2022-10-31T16:50:36.741Z,99235.09
2022-10-31T16:53:14.154Z,99229.13
2022-10-31T16:55:47.816Z,99236.16
2022-10-31T16:58:26.977Z,99219.78
2022-10-31T17:00:56.377Z,99224.09
2022-10-31T17:03:25.585Z,99229.38
2022-10-31T17:05:56.209Z,99223.84
2022-10-31T17:08:25.996Z,99227.03
2022-10-31T17:10:57.660Z,99224.50
2022-10-31T17:13:32.164Z,99228.81
2022-10-31T17:16:03.934Z,99228.00
2022-10-31T17:18:32.692Z,99218.31
2022-10-31T17:21:06.264Z,99218.56
2022-10-31T17:23:39.685Z,99226.28
2022-10-31T17:26:10.425Z,99214.47
2022-10-31T17:28:40.415Z,99218.47
2022-10-31T17:31:20.160Z,99213.31
2022-10-31T17:33:48.959Z,99211.13
2022-10-31T17:36:17.780Z,99210.72
2022-10-31T17:38:46.373Z,99207.69
2022-10-31T17:41:15.155Z,99204.66
2022-10-31T17:43:45.327Z,99203.63
2022-10-31T17:46:14.134Z,99206.72
2022-10-31T17:48:42.951Z,99208.09
2022-10-31T17:51:12.459Z,99200.84
2022-10-31T17:53:41.056Z,99199.72
2022-10-31T17:56:11.405Z,99193.28
2022-10-31T17:58:40.510Z,99199.72
2022-10-31T18:01:17.308Z,99194.81
2022-10-31T18:03:48.057Z,99194.81
2022-10-31T18:06:18.262Z,99194.72
2022-10-31T18:08:48.136Z,99192.78
2022-10-31T18:11:21.789Z,99189.84
2022-10-31T18:13:57.852Z,99188.22
2022-10-31T18:16:33.385Z,99188.69
2022-10-31T18:19:06.121Z,99191.38
2022-10-31T18:21:35.545Z,99191.84
2022-10-31T18:24:04.823Z,99189.75
2022-10-31T18:26:34.565Z,99187.97
2022-10-31T18:29:03.761Z,99182.69
2022-10-31T18:31:33.808Z,99174.38
2022-10-31T18:34:02.547Z,99178.13
2022-10-31T18:36:31.305Z,99171.50
2022-10-31T18:39:00.043Z,99171.91
2022-10-31T18:41:30.053Z,99173.94
2022-10-31T18:49:05.220Z,99169.50
2022-10-31T18:51:33.135Z,99173.72
2022-10-31T18:54:01.817Z,99161.47
2022-10-31T18:56:31.261Z,99162.28
2022-10-31T18:59:01.447Z,99161.94
2022-10-31T19:01:31.083Z,99161.50
2022-10-31T19:04:01.233Z,99153.69
2022-10-31T19:06:31.607Z,99152.94
2022-10-31T19:09:02.951Z,99150.34
2022-10-31T19:11:35.008Z,99146.00
2022-10-31T19:14:04.642Z,99154.66
2022-10-31T19:16:35.700Z,99152.84
2022-10-31T19:19:10.944Z,99147.72
2022-10-31T19:21:57.278Z,99150.25
2022-10-31T19:24:54.174Z,99151.38
2022-10-31T19:27:24.937Z,99153.41
2022-10-31T19:29:55.766Z,99144.28
2022-10-31T19:32:25.091Z,99134.88
2022-10-31T19:34:58.461Z,99132.63
2022-10-31T19:37:47.988Z,99128.34
2022-10-31T19:40:17.345Z,99122.66
2022-10-31T19:42:46.516Z,99113.28
2022-10-31T19:45:15.843Z,99114.22
2022-10-31T19:48:00.474Z,99107.59
2022-10-31T19:50:30.362Z,99107.97
2022-10-31T19:53:01.857Z,99110.06
2022-10-31T19:55:30.692Z,99115.09
2022-10-31T19:58:02.186Z,99117.78
2022-10-31T20:00:31.301Z,99125.34
2022-10-31T20:03:03.845Z,99112.38
2022-10-31T20:05:34.163Z,99107.59
2022-10-31T20:08:04.902Z,99105.50
2022-10-31T20:10:34.077Z,99105.03
2022-10-31T20:13:03.651Z,99102.84
2022-10-31T20:15:32.741Z,99100.63
2022-10-31T20:18:01.733Z,99104.47
2022-10-31T20:20:30.723Z,99104.09
2022-10-31T20:23:00.969Z,99102.81
2022-10-31T20:25:32.401Z,99099.88
2022-10-31T20:28:01.225Z,99091.25
2022-10-31T20:30:30.640Z,99083.91
2022-10-31T20:32:59.317Z,99088.94
2022-10-31T20:35:27.989Z,99084.16
2022-10-31T20:37:57.311Z,99082.91
2022-10-31T20:43:09.508Z,99073.53
2022-10-31T20:45:38.255Z,99065.25
2022-10-31T20:48:07.602Z,99052.41
2022-10-31T20:50:39.507Z,99054.84
2022-10-31T20:53:08.828Z,99050.53
2022-10-31T20:55:38.030Z,99065.50
2022-10-31T20:58:08.536Z,99068.78
2022-10-31T21:00:38.663Z,99066.50
2022-10-31T21:03:07.619Z,99063.56
2022-10-31T21:05:36.707Z,99059.50
2022-10-31T21:08:05.906Z,99057.03
2022-10-31T21:10:35.596Z,99058.53
2022-10-31T21:13:05.934Z,99056.06
2022-10-31T21:15:38.856Z,99047.38
2022-10-31T21:18:09.044Z,99049.72
2022-10-31T21:20:43.716Z,99048.66
2022-10-31T21:23:12.774Z,99046.31
2022-10-31T21:25:43.247Z,99053.13
2022-10-31T21:28:17.509Z,99047.41
2022-10-31T21:30:51.973Z,99052.44
2022-10-31T21:33:20.677Z,99047.06
2022-10-31T21:35:53.146Z,99040.97
2022-10-31T21:38:21.806Z,99041.84
2022-10-31T21:40:50.430Z,99034.84
2022-10-31T21:43:19.078Z,99032.88
2022-10-31T21:45:49.112Z,99032.88
2022-10-31T21:48:17.920Z,99043.47
2022-10-31T21:50:46.560Z,99036.56
2022-10-31T21:53:35.965Z,99041.13
2022-10-31T21:56:05.239Z,99022.34
2022-10-31T21:58:36.265Z,99020.72
2022-10-31T22:01:08.761Z,99007.56
2022-10-31T22:03:38.224Z,99003.00
2022-10-31T22:06:08.824Z,99006.09
2022-10-31T22:08:37.666Z,99002.13
2022-10-31T22:11:10.486Z,99005.19
2022-10-31T22:13:39.354Z,99007.75
2022-10-31T22:16:12.619Z,99016.03
2022-10-31T22:18:42.754Z,99012.75
2022-10-31T22:21:14.254Z,99012.41
2022-10-31T22:23:43.954Z,99008.44
2022-10-31T22:26:16.258Z,99000.97
2022-10-31T22:28:47.328Z,98997.50
2022-10-31T22:31:19.984Z,98998.34
2022-10-31T22:33:49.522Z,98993.34
2022-10-31T22:36:21.337Z,98997.56
2022-10-31T22:38:50.315Z,98987.78
2022-10-31T22:41:21.645Z,98984.88
2022-10-31T22:43:50.941Z,98982.75
2022-10-31T22:46:24.135Z,98976.81
2022-10-31T22:48:55.472Z,98973.09
2022-10-31T22:51:26.801Z,98967.72
2022-10-31T22:53:56.755Z,98960.41
2022-10-31T22:56:29.427Z,98958.19
2022-10-31T22:58:59.444Z,98958.31
2022-10-31T23:01:32.688Z,98951.81
2022-10-31T23:04:02.057Z,98952.25
2022-10-31T23:06:33.009Z,98947.50
2022-10-31T23:09:03.545Z,98941.47
2022-10-31T23:11:35.289Z,98942.72
2022-10-31T23:14:09.073Z,98941.56
2022-10-31T23:16:44.233Z,98942.84
2022-10-31T23:19:17.193Z,98937.72
2022-10-31T23:22:00.012Z,98927.00
2022-10-31T23:24:34.291Z,98924.69
2022-10-31T23:27:10.948Z,98922.72
2022-10-31T23:29:44.448Z,98922.72
2022-10-31T23:32:21.824Z,98923.31
2022-10-31T23:34:53.752Z,98913.38
2022-10-31T23:37:25.462Z,98912.94
2022-10-31T23:39:54.114Z,98914.31
2022-10-31T23:42:23.536Z,98903.25
2022-10-31T23:44:52.254Z,98904.78
2022-10-31T23:47:23.818Z,98907.78
2022-10-31T23:49:52.553Z,98910.47
2022-10-31T23:52:21.208Z,98905.59
2022-10-31T23:54:49.826Z,98901.19
2022-10-31T23:57:18.936Z,98905.34
2022-10-31T23:59:47.990Z,98904.78
